Aérodrome :
LOGIN :

S'inscrire | Disclaimer

   EN    FR    IT 

 










Légende :    VFR   VFR Marginal   IFR   IFR Intensif   IFR Très Intensif
Visi : 
Plafond : 
>= 8 km
>= 3000ft
5 à 8 km
1000 à 3000 ft
1500m à 5 km
500 à 1000 ft
800 à 1500m
200 à 500 ft
< 800m
< 200 ft
Symboles :   Orages  Brouillard  Fortes neiges  Fortes précipitations  Vent > 20 kt
SIGMETs :   Divers  Orages  Givrage  Turbulence  Onde Orograph.  Cendres Volcan.







- Altitude de l'aérodrome : 146 ft
- Code IATA : RKE


EKRK - Roskilde Tune

DERNIER METAR :
  • 232350Z AUTO 11003KT 0750NDV R11/1000D R29/P1500N BCFG FEW001/// SCT010/// BKN095/// 14/14 Q1012

METARs EXPIRÉS :
  • 232320Z AUTO 11004KT 3300NDV BR BKN001/// BKN011/// 14/14 Q1012
  • 232250Z AUTO 09004KT 3500NDV BR BKN001/// BKN090/// 15/15 Q1012
  • 232220Z AUTO 09003KT 9000NDV OVC085/// 15/15 Q1012
  • 232150Z AUTO 10003KT 6000NDV FEW018/// SCT085/// BKN100/// 15/14 Q1012
  • 232120Z AUTO 08003KT 9999NDV FEW005/// BKN030/// BKN038/// 15/15 Q1012

TAF AMD TAF EKRK
Valide du 24 à 00h jusqu'au 24 à 09h UTC


240000Z 2400/2409 VRB04KT 4000 BR NSC
PROB40 2400/2406 0200 FG VV001
BECMG 2406/2408 9999 NSW
TEMPO 2408/2409 4000 BR RA BKN008
Pas de NOTAMs connus pour ce terrain.



MET'MAP, la Météo Aéronautique d'un coup d'oeil ! - Copyright ORBIFLY Décembre 2007 - Disclaimer

ORBIFLY MET'MAP TEAM :

Programmation & Développement : Alexandra Zaïnal
Conception & Développement : Baudouin d'Aumeries
Co-Programmation & Développement : Marc-Olivier Méhu
Soutien technique & logistique : Manuel Goepfert

Contact : metmap@orbifly.com




SOURCES & CREDITS :

   NOAA